createdAt,value
2023-01-08T00:04:18.432Z,24.08
2023-01-08T00:19:20.362Z,24.118
2023-01-08T00:34:22.302Z,23.673
2023-01-08T00:49:24.231Z,24.375
2023-01-08T01:04:26.282Z,24.753
2023-01-08T01:19:28.278Z,24.397
2023-01-08T01:34:30.169Z,24.042
2023-01-08T01:49:32.075Z,23.77
2023-01-08T02:04:33.946Z,25.678
2023-01-08T02:19:35.889Z,24.861
2023-01-08T02:34:37.868Z,23.308
2023-01-08T02:49:40.013Z,21.848
2023-01-08T03:04:41.936Z,22.581
2023-01-08T03:19:43.873Z,23.988
2023-01-08T03:34:45.801Z,22.625
2023-01-08T03:49:47.737Z,21.647
2023-01-08T04:04:49.647Z,21.179
2023-01-08T04:19:51.732Z,20.796
2023-01-08T04:34:53.876Z,20.783
2023-01-08T04:49:55.783Z,20.294
2023-01-08T05:04:57.733Z,21.654
2023-01-08T05:19:59.650Z,20.654
2023-01-08T05:35:01.582Z,19.829
2023-01-08T05:50:03.544Z,19.257
2023-01-08T06:05:05.462Z,19.524
2023-01-08T06:20:07.512Z,19.276
2023-01-08T06:35:09.456Z,18.581
2023-01-08T06:50:11.394Z,18.744
2023-01-08T07:05:13.359Z,18.416
2023-01-08T07:20:15.306Z,18.566
2023-01-08T07:35:17.276Z,18.309
2023-01-08T07:50:19.231Z,18.544
2023-01-08T08:05:21.124Z,18.521
2023-01-08T08:20:23.059Z,18.333
2023-01-08T08:35:24.983Z,20.832
2023-01-08T08:50:26.876Z,20.546
2023-01-08T09:05:28.790Z,19.459
2023-01-08T09:20:30.714Z,19.01
2023-01-08T09:35:32.697Z,19.108
2023-01-08T09:50:34.636Z,18.272
2023-01-08T10:05:36.586Z,18.115
2023-01-08T10:20:38.509Z,18.077
2023-01-08T10:35:40.437Z,18.359
2023-01-08T10:50:42.359Z,18.251
2023-01-08T11:05:44.382Z,18.281
2023-01-08T11:20:46.370Z,18.884
2023-01-08T11:35:48.315Z,18.819
2023-01-08T11:50:50.256Z,18.759
2023-01-08T12:05:52.177Z,18.638
2023-01-08T12:20:54.105Z,18.517
2023-01-08T12:35:56.027Z,18.977
2023-01-08T12:50:58.070Z,19.85
2023-01-08T13:05:59.940Z,20.172
2023-01-08T13:21:01.791Z,20.308
2023-01-08T13:36:03.833Z,20.26
2023-01-08T13:51:05.696Z,20.01
2023-01-08T14:06:07.560Z,20.025
2023-01-08T14:21:09.418Z,19.951
2023-01-08T14:36:11.306Z,20.264
2023-01-08T14:51:13.136Z,20.557
2023-01-08T15:06:15.101Z,20.568
2023-01-08T15:21:16.945Z,21.191
2023-01-08T15:36:18.798Z,21.859
2023-01-08T15:51:20.647Z,21.79
2023-01-08T16:06:22.730Z,21.715
2023-01-08T16:21:24.658Z,21.742
2023-01-08T16:36:26.509Z,22.783
2023-01-08T16:51:28.368Z,22.125
2023-01-08T17:06:30.244Z,22.422
2023-01-08T17:21:32.108Z,22.634
2023-01-08T17:36:34.023Z,22.441
2023-01-08T17:51:36.098Z,22.56
2023-01-08T18:06:37.962Z,22.981
2023-01-08T18:21:39.830Z,22.555
2023-01-08T18:36:41.724Z,22.778
2023-01-08T18:51:43.588Z,23.19
2023-01-08T19:06:45.662Z,22.6
2023-01-08T19:21:47.528Z,22.814
2023-01-08T19:36:49.371Z,23.378
2023-01-08T19:51:51.214Z,22.689
2023-01-08T20:06:53.052Z,23.984
2023-01-08T20:21:54.899Z,24.036
2023-01-08T20:36:56.742Z,25.408
2023-01-08T20:51:59.758Z,26.641
2023-01-08T21:07:02.276Z,24.39
2023-01-08T21:22:04.143Z,24.378
2023-01-08T21:37:06.014Z,25.323
2023-01-08T21:52:07.903Z,23.274
2023-01-08T22:07:09.744Z,23
2023-01-08T22:22:11.568Z,22.703
2023-01-08T22:37:13.500Z,22.514
2023-01-08T22:52:15.381Z,22.563
2023-01-08T23:07:17.256Z,22.218
2023-01-08T23:22:19.134Z,22.52
2023-01-08T23:37:20.946Z,22.948
2023-01-08T23:52:22.782Z,23.054
